Time;durP1;ratioP1;P1;durP2;ratioP2;P2;SDS_P1;SDS_P2;PMS_P1;PMS_P2;Temp;Humidity;BMP_temperature;BMP_pressure;BME280_temperature;BME280_humidity;BME280_pressure;Samples;Min_cycle;Max_cycle;Signal;HPM_P1;HPM_P2
2024/04/24 00:00:26;;;;;;;0.57;0.57;;;;;;;23.69;40.73;100291.31;7400133;19;20343;-57
2024/04/24 00:02:54;;;;;;;0.85;0.85;;;;;;;23.60;41.18;100284.03;7398478;19;20029;-57
2024/04/24 00:05:23;;;;;;;1.60;0.93;;;;;;;23.46;41.70;100278.97;7398235;19;20017;-57
2024/04/24 00:07:49;;;;;;;3.22;0.63;;;;;;;23.48;41.72;100287.69;7399945;19;20463;-57
2024/04/24 00:10:15;;;;;;;12.85;1.05;;;;;;;23.65;41.26;100277.44;7397318;19;20353;-57
2024/04/24 00:12:41;;;;;;;1.23;0.95;;;;;;;23.40;41.81;100272.66;7399479;19;20007;-58
2024/04/24 00:15:07;;;;;;;1.85;0.95;;;;;;;23.45;41.52;100281.06;7393124;19;20042;-58
2024/04/24 00:17:33;;;;;;;0.60;0.60;;;;;;;23.22;41.43;100280.03;7394438;19;20343;-57
2024/04/24 00:19:59;;;;;;;0.80;0.80;;;;;;;23.06;41.77;100282.00;7397386;19;20442;-57
2024/04/24 00:22:26;;;;;;;2.53;0.90;;;;;;;22.83;42.06;100268.81;7396592;19;20011;-58
2024/04/24 00:24:52;;;;;;;0.65;0.65;;;;;;;23.04;41.84;100269.66;7398009;19;20011;-58
2024/04/24 00:27:18;;;;;;;1.77;0.98;;;;;;;23.45;40.80;100281.06;7396454;19;20029;-58
2024/04/24 00:29:44;;;;;;;3.30;1.80;;;;;;;23.47;40.51;100271.97;7395438;19;20025;-58
2024/04/24 00:32:10;;;;;;;4.78;1.08;;;;;;;22.73;41.53;100259.25;7396130;19;20795;-58
2024/04/24 00:34:37;;;;;;;4.18;1.23;;;;;;;23.63;40.65;100257.31;7392081;19;20015;-58
2024/04/24 00:37:04;;;;;;;1.30;0.60;;;;;;;23.85;40.34;100251.03;7398828;19;20010;-58
2024/04/24 00:39:30;;;;;;;11.98;0.90;;;;;;;24.12;39.76;100256.56;7395456;19;20090;-59
2024/04/24 00:41:56;;;;;;;2.13;1.10;;;;;;;24.02;39.84;100257.03;7394843;19;20011;-59
2024/04/24 00:44:23;;;;;;;0.47;0.47;;;;;;;23.94;39.72;100255.47;7396749;19;20014;-59
2024/04/24 00:46:50;;;;;;;0.80;0.80;;;;;;;23.99;39.75;100252.47;7394409;19;20019;-60
2024/04/24 00:49:17;;;;;;;0.50;0.50;;;;;;;23.00;40.54;100250.09;7398576;19;20014;-60
2024/04/24 00:51:44;;;;;;;7.63;0.93;;;;;;;22.75;41.17;100262.31;7394247;19;20355;-60
2024/04/24 00:54:12;;;;;;;1.17;1.08;;;;;;;22.67;40.81;100261.47;7394067;19;20032;-59
2024/04/24 00:56:38;;;;;;;0.95;0.95;;;;;;;22.48;41.33;100262.31;7395373;19;20029;-59
2024/04/24 00:59:04;;;;;;;1.27;1.17;;;;;;;23.34;40.01;100256.53;7397392;19;20026;-59
2024/04/24 01:01:31;;;;;;;1.33;1.15;;;;;;;23.31;39.66;100254.00;7394523;19;20491;-60
2024/04/24 01:03:57;;;;;;;6.60;1.20;;;;;;;23.45;39.62;100235.59;7393792;19;20024;-59
2024/04/24 01:06:23;;;;;;;4.03;1.65;;;;;;;23.43;39.92;100237.44;7394512;19;20010;-58
2024/04/24 01:08:49;;;;;;;0.98;0.95;;;;;;;23.47;39.75;100241.47;7393852;19;20018;-58
2024/04/24 01:11:15;;;;;;;0.52;0.50;;;;;;;23.73;39.50;100241.31;7397300;19;20033;-58
2024/04/24 01:13:41;;;;;;;0.90;0.90;;;;;;;23.50;39.64;100228.97;7391875;19;20019;-58
2024/04/24 01:16:19;;;;;;;0.32;0.32;;;;;;;23.45;39.74;100235.59;7393655;19;20098;-58
2024/04/24 01:18:53;;;;;;;1.80;0.85;;;;;;;23.33;40.32;100231.47;7394168;19;20006;-58
2024/04/24 01:21:21;;;;;;;0.55;0.55;;;;;;;23.38;40.07;100226.97;7396898;19;20014;-58
2024/04/24 01:24:04;;;;;;;2.20;0.55;;;;;;;23.45;39.79;100221.38;7392564;19;20014;-58
2024/04/24 01:26:47;;;;;;;0.60;0.60;;;;;;;23.54;39.81;100209.47;7391402;19;20021;-58
2024/04/24 01:29:14;;;;;;;0.68;0.68;;;;;;;23.69;39.43;100217.38;7393040;19;20070;-58
2024/04/24 01:31:41;;;;;;;1.60;1.35;;;;;;;23.52;39.84;100226.31;7391943;19;20022;-58
2024/04/24 01:34:07;;;;;;;1.33;0.93;;;;;;;23.57;39.40;100216.91;7391685;19;20021;-58
2024/04/24 01:36:34;;;;;;;0.60;0.60;;;;;;;23.44;39.91;100224.75;7392422;19;20010;-58
2024/04/24 01:39:03;;;;;;;0.55;0.55;;;;;;;23.60;39.61;100215.78;7393034;19;20467;-58
2024/04/24 01:41:29;;;;;;;0.95;0.65;;;;;;;23.55;39.81;100213.84;7391556;19;20029;-58
2024/04/24 01:43:56;;;;;;;1.45;1.10;;;;;;;23.69;39.86;100206.00;7393356;19;20032;-58
2024/04/24 01:46:22;;;;;;;0.88;0.88;;;;;;;23.69;39.91;100215.28;7392556;19;20003;-58
2024/04/24 01:48:48;;;;;;;1.27;1.23;;;;;;;23.73;39.80;100198.63;7391735;19;20031;-58
2024/04/24 01:51:14;;;;;;;8.15;1.20;;;;;;;23.55;40.10;100185.41;7392685;19;20014;-58
2024/04/24 01:53:40;;;;;;;3.05;0.82;;;;;;;22.96;41.00;100186.41;7390262;19;20074;-58
2024/04/24 01:56:10;;;;;;;1.27;0.70;;;;;;;22.31;41.45;100196.66;7393524;19;20014;-58
2024/04/24 01:58:36;;;;;;;5.55;2.17;;;;;;;21.87;42.25;100208.94;7392955;19;20358;-58
2024/04/24 02:01:02;;;;;;;0.65;0.65;;;;;;;21.81;42.45;100205.38;7391740;19;20086;-58
2024/04/24 02:03:29;;;;;;;0.68;0.50;;;;;;;21.59;42.63;100198.06;7392285;19;20011;-58
2024/04/24 02:05:55;;;;;;;13.40;1.85;;;;;;;21.87;42.25;100204.00;7389673;19;20014;-58
2024/04/24 02:08:21;;;;;;;1.38;1.27;;;;;;;22.06;41.79;100209.56;7390168;19;20029;-58
2024/04/24 02:10:47;;;;;;;1.30;0.80;;;;;;;22.49;41.85;100207.09;7391614;19;20070;-58
2024/04/24 02:13:13;;;;;;;1.42;0.88;;;;;;;23.42;40.62;100198.97;7390002;19;20016;-58
2024/04/24 02:15:39;;;;;;;2.28;1.33;;;;;;;23.19;40.80;100201.59;7391404;19;20471;-58
2024/04/24 02:18:06;;;;;;;2.92;1.27;;;;;;;23.32;40.41;100198.69;7394546;19;20511;-58
2024/04/24 02:20:33;;;;;;;1.85;1.75;;;;;;;23.62;40.14;100189.63;7391650;19;20031;-58
2024/04/24 02:23:04;;;;;;;1.42;1.20;;;;;;;23.36;40.21;100193.44;7389867;19;20070;-58
2024/04/24 02:25:36;;;;;;;3.85;1.23;;;;;;;23.40;40.40;100190.22;7391428;19;20006;-58
2024/04/24 02:28:06;;;;;;;3.40;1.75;;;;;;;23.52;40.28;100180.84;7395550;19;20015;-58
2024/04/24 02:30:32;;;;;;;1.90;1.52;;;;;;;23.47;40.45;100184.63;7389465;19;20010;-58
2024/04/24 02:32:58;;;;;;;1.73;1.55;;;;;;;23.59;40.52;100177.28;7391027;19;20021;-58
2024/04/24 02:35:24;;;;;;;1.83;1.45;;;;;;;23.56;40.06;100175.59;7389516;19;20026;-58
2024/04/24 02:37:50;;;;;;;2.30;1.15;;;;;;;22.77;41.21;100171.63;7394235;19;20010;-58
2024/04/24 02:40:17;;;;;;;3.78;1.40;;;;;;;22.68;41.35;100175.72;7391271;19;20006;-58
2024/04/24 02:42:43;;;;;;;1.98;0.85;;;;;;;23.13;40.93;100172.56;7388493;19;20014;-58
2024/04/24 02:45:09;;;;;;;0.65;0.65;;;;;;;23.11;41.06;100170.25;7390653;19;20402;-58
2024/04/24 02:47:35;;;;;;;2.10;1.33;;;;;;;23.27;40.85;100171.16;7388834;19;20439;-58
2024/04/24 02:50:01;;;;;;;0.60;0.60;;;;;;;23.22;40.76;100167.13;7398806;19;20389;-58
2024/04/24 02:52:27;;;;;;;3.00;0.98;;;;;;;23.18;40.78;100166.72;7397969;19;20015;-58
2024/04/24 02:54:54;;;;;;;3.80;1.73;;;;;;;22.95;41.12;100173.53;7396140;19;20051;-58
2024/04/24 02:57:20;;;;;;;8.50;2.40;;;;;;;22.52;41.64;100160.56;7397403;19;20027;-58
2024/04/24 02:59:46;;;;;;;5.93;1.10;;;;;;;22.37;41.83;100171.75;7395629;19;20462;-58
2024/04/24 03:02:12;;;;;;;0.90;0.90;;;;;;;22.20;41.89;100156.41;7399216;19;20022;-58
2024/04/24 03:04:38;;;;;;;2.30;0.80;;;;;;;22.23;42.32;100155.31;7395550;19;20615;-58
2024/04/24 03:07:04;;;;;;;0.95;0.95;;;;;;;22.24;42.01;100154.75;7399809;19;20018;-57
2024/04/24 03:09:30;;;;;;;0.82;0.82;;;;;;;22.19;41.54;100152.81;7398043;19;20007;-58
2024/04/24 03:11:57;;;;;;;0.47;0.47;;;;;;;22.08;41.57;100146.59;7398616;19;20455;-58
2024/04/24 03:14:24;;;;;;;0.73;0.68;;;;;;;22.11;42.17;100148.34;7395920;19;20014;-58
2024/04/24 03:16:50;;;;;;;0.80;0.80;;;;;;;22.04;42.28;100149.78;7395275;19;20473;-58
2024/04/24 03:19:16;;;;;;;0.77;0.77;;;;;;;22.13;42.02;100146.50;7396965;19;20017;-58
2024/04/24 03:21:43;;;;;;;1.00;0.85;;;;;;;22.09;42.05;100148.88;7395830;19;20010;-58
2024/04/24 03:24:09;;;;;;;3.22;1.40;;;;;;;22.20;42.04;100139.41;7397960;19;20038;-58
2024/04/24 03:26:35;;;;;;;0.80;0.80;;;;;;;22.29;42.27;100136.84;7397734;19;20011;-58
2024/04/24 03:29:01;;;;;;;6.53;1.30;;;;;;;22.64;41.51;100149.75;7397670;19;20006;-58
2024/04/24 03:31:31;;;;;;;0.63;0.63;;;;;;;22.78;41.18;100137.03;7394706;19;20027;-58
2024/04/24 03:33:57;;;;;;;0.88;0.88;;;;;;;22.86;41.17;100146.38;7394813;19;20006;-58
2024/04/24 03:36:24;;;;;;;9.15;1.48;;;;;;;22.74;41.29;100147.19;7396366;19;20113;-58
2024/04/24 03:38:50;;;;;;;1.75;1.40;;;;;;;22.93;40.97;100137.16;7396412;19;20359;-58
2024/04/24 03:41:16;;;;;;;1.10;1.10;;;;;;;22.80;40.89;100142.13;7397233;19;20015;-58
2024/04/24 03:43:42;;;;;;;0.47;0.47;;;;;;;23.07;40.74;100135.75;7395035;19;20014;-58
2024/04/24 03:46:08;;;;;;;2.20;1.60;;;;;;;22.66;41.72;100135.75;7398169;19;20052;-58
2024/04/24 03:48:34;;;;;;;1.33;0.90;;;;;;;23.29;40.54;100117.34;7394903;19;20462;-58
2024/04/24 03:51:00;;;;;;;6.57;1.40;;;;;;;23.35;40.18;100121.59;7396112;19;20006;-58
2024/04/24 03:53:26;;;;;;;0.47;0.47;;;;;;;23.12;40.16;100125.56;7396667;19;20459;-58
2024/04/24 03:55:53;;;;;;;0.98;0.98;;;;;;;22.97;40.01;100136.81;7398286;19;20007;-58
2024/04/24 03:58:19;;;;;;;6.43;1.70;;;;;;;22.90;39.76;100131.81;7397039;19;20335;-58
2024/04/24 04:00:45;;;;;;;1.23;1.23;;;;;;;22.83;39.44;100132.50;7395559;19;20010;-58
2024/04/24 04:03:11;;;;;;;0.70;0.70;;;;;;;22.75;39.20;100126.75;7394438;19;20442;-58
2024/04/24 04:05:37;;;;;;;4.10;0.90;;;;;;;22.65;39.16;100122.88;7394111;19;20488;-58
2024/04/24 04:08:04;;;;;;;0.80;0.80;;;;;;;22.39;38.83;100129.38;7397480;19;20018;-58
2024/04/24 04:10:30;;;;;;;1.25;1.25;;;;;;;22.24;38.92;100117.13;7397760;19;20067;-57
2024/04/24 04:12:56;;;;;;;3.40;1.40;;;;;;;22.24;38.84;100123.53;7394796;19;20027;-57
2024/04/24 04:15:22;;;;;;;0.85;0.85;;;;;;;22.30;38.40;100127.03;7391489;19;20042;-57
2024/04/24 04:17:48;;;;;;;5.00;0.73;;;;;;;22.22;38.52;100119.75;7394328;19;20028;-57
2024/04/24 04:20:15;;;;;;;0.93;0.93;;;;;;;22.04;38.59;100129.94;7394853;19;20387;-57
2024/04/24 04:22:41;;;;;;;6.57;0.85;;;;;;;21.86;38.37;100128.00;7397329;19;20036;-57
2024/04/24 04:25:07;;;;;;;1.55;0.60;;;;;;;21.85;38.45;100132.16;7395525;19;20470;-57
2024/04/24 04:27:33;;;;;;;0.57;0.57;;;;;;;21.85;38.51;100121.56;7395311;19;20011;-58
2024/04/24 04:29:59;;;;;;;0.95;0.95;;;;;;;21.86;38.27;100123.09;7394000;19;20015;-57
2024/04/24 04:32:26;;;;;;;5.15;1.27;;;;;;;21.99;37.70;100122.31;7394191;19;20506;-57
2024/04/24 04:34:52;;;;;;;25.38;1.73;;;;;;;21.58;38.16;100119.25;7395797;19;20030;-58
2024/04/24 04:37:19;;;;;;;0.30;0.30;;;;;;;21.38;38.35;100117.06;7398188;19;20014;-58
2024/04/24 04:39:45;;;;;;;0.70;0.70;;;;;;;21.53;38.01;100123.72;7395148;19;20354;-57
2024/04/24 04:42:11;;;;;;;2.75;0.80;;;;;;;21.28;37.98;100118.81;7391918;19;20383;-57
2024/04/24 04:44:37;;;;;;;0.73;0.73;;;;;;;21.14;37.85;100113.13;7394818;19;20034;-57
2024/04/24 04:47:03;;;;;;;0.47;0.47;;;;;;;21.02;37.99;100114.63;7396761;19;20048;-57
2024/04/24 04:49:30;;;;;;;0.30;0.30;;;;;;;20.85;38.54;100111.31;7393317;19;20018;-57
2024/04/24 04:51:56;;;;;;;0.55;0.55;;;;;;;20.76;38.60;100120.22;7393215;19;20015;-57
2024/04/24 04:54:22;;;;;;;0.50;0.50;;;;;;;20.76;38.25;100113.78;7390322;19;20426;-57
2024/04/24 04:56:48;;;;;;;1.00;1.00;;;;;;;20.83;37.98;100113.94;7394159;19;20082;-57
2024/04/24 04:59:14;;;;;;;0.73;0.73;;;;;;;20.80;37.96;100109.34;7397071;19;20007;-57
2024/04/24 05:01:40;;;;;;;1.63;1.00;;;;;;;20.48;38.48;100114.25;7394184;19;20014;-57
2024/04/24 05:04:07;;;;;;;0.55;0.55;;;;;;;20.55;38.34;100110.78;7393676;19;20022;-57
2024/04/24 05:06:33;;;;;;;0.45;0.45;;;;;;;20.60;38.12;100111.97;7393894;19;20070;-57
2024/04/24 05:08:59;;;;;;;0.47;0.47;;;;;;;20.56;38.22;100117.97;7392342;19;20011;-58
2024/04/24 05:11:25;;;;;;;0.50;0.50;;;;;;;20.40;38.31;100119.75;7395001;19;20107;-57
2024/04/24 05:13:51;;;;;;;0.65;0.65;;;;;;;20.46;38.25;100125.34;7390981;19;20456;-57
2024/04/24 05:16:17;;;;;;;1.38;0.95;;;;;;;20.69;38.19;100115.19;7392729;19;20028;-57
2024/04/24 05:18:43;;;;;;;0.68;0.68;;;;;;;20.63;38.22;100108.84;7393121;19;20011;-57
2024/04/24 05:21:10;;;;;;;0.57;0.57;;;;;;;20.73;38.24;100109.97;7392958;19;20452;-57
2024/04/24 05:23:36;;;;;;;0.40;0.40;;;;;;;20.60;38.33;100112.75;7393606;19;20018;-57
2024/04/24 05:31:33;;;;;;;0.80;0.80;;;;;;;20.83;38.13;100110.34;7394156;19;20149;-57
2024/04/24 05:33:59;;;;;;;0.57;0.50;;;;;;;20.81;37.83;100116.50;7391730;19;20369;-57
2024/04/24 05:36:25;;;;;;;4.88;1.95;;;;;;;20.84;38.26;100120.34;7391953;19;20332;-58
2024/04/24 05:38:51;;;;;;;0.77;0.77;;;;;;;20.67;38.46;100123.44;7392080;19;20079;-58
2024/04/24 05:41:17;;;;;;;0.77;0.77;;;;;;;20.81;38.70;100125.00;7392230;19;20014;-58
2024/04/24 05:43:43;;;;;;;7.35;2.03;;;;;;;21.05;38.75;100118.47;7392314;19;20096;-57
2024/04/24 05:46:10;;;;;;;10.65;5.50;;;;;;;21.08;38.67;100114.53;7392017;19;20027;-58
2024/04/24 05:48:36;;;;;;;12.57;5.28;;;;;;;21.29;38.83;100114.69;7390324;19;20010;-58
2024/04/24 05:51:06;;;;;;;7.28;3.35;;;;;;;21.27;38.61;100114.47;7392065;19;20090;-57
2024/04/24 05:53:32;;;;;;;7.90;4.38;;;;;;;21.49;38.30;100109.13;7395275;19;20015;-58
2024/04/24 05:55:58;;;;;;;3.50;1.67;;;;;;;21.57;38.69;100112.81;7395953;19;20014;-57
2024/04/24 05:58:24;;;;;;;2.88;2.60;;;;;;;21.65;38.68;100113.72;7392323;19;20014;-57
2024/04/24 06:00:50;;;;;;;3.55;2.58;;;;;;;21.73;38.45;100116.63;7391142;19;20018;-57
2024/04/24 06:03:16;;;;;;;1.83;1.10;;;;;;;21.83;38.44;100112.06;7395595;19;20010;-57
2024/04/24 06:05:42;;;;;;;7.03;2.40;;;;;;;21.92;39.05;100114.44;7392096;19;20034;-57
2024/04/24 06:08:09;;;;;;;1.88;1.33;;;;;;;21.82;39.43;100114.16;7396235;19;20031;-57
2024/04/24 06:10:35;;;;;;;2.03;1.80;;;;;;;22.07;39.25;100103.28;7389663;19;20543;-57
2024/04/24 06:13:01;;;;;;;5.93;1.15;;;;;;;22.01;39.44;100107.56;7394497;19;20014;-57
2024/04/24 06:15:28;;;;;;;1.77;1.67;;;;;;;22.05;39.53;100105.16;7388630;19;20474;-57
2024/04/24 06:17:55;;;;;;;0.82;0.82;;;;;;;22.33;39.74;100103.22;7391030;19;20474;-58
2024/04/24 06:20:21;;;;;;;0.93;0.93;;;;;;;22.49;39.28;100102.06;7391621;19;20018;-58
2024/04/24 06:22:48;;;;;;;5.30;1.77;;;;;;;22.31;39.61;100107.91;7389842;19;20006;-57
2024/04/24 06:25:15;;;;;;;0.75;0.75;;;;;;;22.19;39.75;100113.09;7393998;19;20025;-57
2024/04/24 06:27:41;;;;;;;0.65;0.65;;;;;;;22.00;39.47;100108.88;7391539;19;20085;-57
2024/04/24 06:30:08;;;;;;;2.95;0.93;;;;;;;21.93;39.53;100107.47;7390632;19;20066;-57
2024/04/24 06:32:34;;;;;;;0.93;0.93;;;;;;;21.90;39.43;100105.72;7390254;19;20036;-57
2024/04/24 06:35:00;;;;;;;0.60;0.60;;;;;;;22.05;39.23;100105.91;7389935;19;20094;-58
2024/04/24 06:37:26;;;;;;;12.55;0.93;;;;;;;21.98;39.15;100112.28;7393441;19;20356;-57
2024/04/24 06:39:52;;;;;;;3.63;1.27;;;;;;;22.02;39.28;100104.19;7390895;19;20011;-57
2024/04/24 06:42:18;;;;;;;0.73;0.73;;;;;;;21.78;39.29;100104.44;7391787;19;20042;-57
2024/04/24 06:44:44;;;;;;;0.77;0.77;;;;;;;21.85;39.38;100100.97;7391533;19;20015;-57
2024/04/24 06:47:10;;;;;;;1.23;1.00;;;;;;;21.81;39.58;100086.31;7390523;19;20119;-57
2024/04/24 06:49:36;;;;;;;4.32;0.85;;;;;;;21.70;39.39;100100.72;7393996;19;20338;-57
2024/04/24 06:52:03;;;;;;;0.65;0.65;;;;;;;21.81;39.47;100103.31;7390631;19;20044;-57
2024/04/24 06:54:30;;;;;;;0.68;0.68;;;;;;;21.84;39.23;100107.94;7390973;19;20327;-57
2024/04/24 06:56:56;;;;;;;0.63;0.63;;;;;;;22.21;38.97;100096.28;7390892;19;20014;-57
2024/04/24 06:59:23;;;;;;;0.68;0.68;;;;;;;22.29;38.78;100097.13;7393303;19;20011;-57
2024/04/24 07:01:50;;;;;;;0.93;0.65;;;;;;;22.29;38.94;100091.44;7390927;19;20014;-58
2024/04/24 07:04:16;;;;;;;1.70;1.13;;;;;;;22.18;38.90;100094.53;7388616;19;20388;-57
2024/04/24 07:06:42;;;;;;;0.88;0.88;;;;;;;22.05;38.62;100085.28;7389611;19;20025;-57
2024/04/24 07:09:09;;;;;;;1.00;1.00;;;;;;;21.97;38.98;100082.38;7389282;19;20360;-58
2024/04/24 07:11:35;;;;;;;1.25;1.15;;;;;;;22.04;38.93;100090.22;7390607;19;20022;-58
2024/04/24 07:14:01;;;;;;;0.65;0.65;;;;;;;22.10;39.16;100087.25;7389120;19;20018;-58
2024/04/24 07:16:31;;;;;;;0.85;0.85;;;;;;;22.39;38.55;100086.81;7388722;19;20011;-57
2024/04/24 07:18:57;;;;;;;1.48;1.15;;;;;;;22.45;38.86;100084.63;7389914;19;20463;-57
2024/04/24 07:21:25;;;;;;;1.55;1.00;;;;;;;22.74;38.39;100084.72;7391094;19;20010;-57
2024/04/24 07:23:52;;;;;;;1.00;0.80;;;;;;;22.95;38.43;100083.41;7389273;19;20015;-57
2024/04/24 07:26:18;;;;;;;5.72;1.55;;;;;;;23.24;37.96;100087.00;7387538;19;20038;-57
2024/04/24 07:28:45;;;;;;;1.27;0.90;;;;;;;23.24;37.36;100087.00;7387831;19;20359;-57
2024/04/24 07:31:11;;;;;;;3.15;0.77;;;;;;;23.15;37.21;100087.53;7389568;19;20038;-57
2024/04/24 07:33:37;;;;;;;1.63;0.88;;;;;;;23.05;37.39;100086.47;7387131;19;20113;-57
2024/04/24 07:36:04;;;;;;;0.55;0.55;;;;;;;22.92;36.42;100084.50;7391366;19;20034;-57
2024/04/24 07:38:30;;;;;;;0.32;0.32;;;;;;;22.87;35.88;100090.34;7394877;19;20015;-57
2024/04/24 07:40:56;;;;;;;0.47;0.47;;;;;;;22.95;35.69;100077.72;7395607;19;20023;-57
2024/04/24 07:43:22;;;;;;;0.65;0.65;;;;;;;22.84;36.08;100088.59;7400022;19;20011;-57
2024/04/24 07:45:48;;;;;;;1.20;0.80;;;;;;;22.61;36.17;100089.16;7394941;19;20010;-57
2024/04/24 07:48:18;;;;;;;0.70;0.70;;;;;;;22.67;36.23;100091.09;7396881;19;20343;-58
2024/04/24 07:50:46;;;;;;;0.80;0.80;;;;;;;22.86;35.89;100091.63;7396782;19;20048;-57
2024/04/24 07:53:15;;;;;;;0.75;0.75;;;;;;;22.87;35.67;100093.91;7400472;19;20033;-57
2024/04/24 07:55:42;;;;;;;0.47;0.47;;;;;;;22.70;35.00;100095.69;7397211;19;20010;-57
2024/04/24 07:58:09;;;;;;;2.55;0.85;;;;;;;22.72;35.33;100090.19;7396355;19;20011;-57
2024/04/24 08:00:35;;;;;;;0.50;0.50;;;;;;;22.84;35.24;100095.03;7395241;19;20018;-57
2024/04/24 08:03:01;;;;;;;0.68;0.68;;;;;;;22.97;34.79;100088.50;7399011;19;20078;-57
2024/04/24 08:05:28;;;;;;;1.20;0.75;;;;;;;22.61;34.74;100091.97;7396137;19;20010;-57
2024/04/24 08:07:54;;;;;;;0.50;0.50;;;;;;;22.70;34.93;100095.69;7399728;19;20074;-57
2024/04/24 08:10:20;;;;;;;0.57;0.47;;;;;;;22.76;34.76;100099.88;7393876;19;20038;-57
2024/04/24 08:12:46;;;;;;;2.05;1.20;;;;;;;22.82;34.78;100096.91;7395202;19;20022;-57
2024/04/24 08:15:12;;;;;;;0.45;0.45;;;;;;;22.79;34.69;100093.09;7392785;19;20372;-57
2024/04/24 08:17:39;;;;;;;0.60;0.60;;;;;;;22.79;34.03;100092.31;7394096;19;20030;-57
2024/04/24 08:20:06;;;;;;;0.45;0.45;;;;;;;22.92;33.93;100089.41;7394933;19;20031;-58
2024/04/24 08:22:32;;;;;;;1.00;0.65;;;;;;;22.95;33.55;100088.31;7393820;19;20018;-57
2024/04/24 08:24:58;;;;;;;0.52;0.52;;;;;;;23.28;33.99;100084.59;7397078;19;20117;-58
2024/04/24 08:27:24;;;;;;;1.95;1.23;;;;;;;23.52;33.49;100089.84;7393367;19;20018;-57
2024/04/24 08:29:50;;;;;;;0.40;0.35;;;;;;;23.53;33.39;100079.25;7394529;19;20014;-57
2024/04/24 08:32:16;;;;;;;1.95;0.55;;;;;;;23.31;33.57;100080.59;7394631;19;20018;-58
2024/04/24 08:34:43;;;;;;;0.40;0.40;;;;;;;23.65;33.09;100086.88;7390144;19;20027;-57
2024/04/24 08:37:09;;;;;;;1.30;0.63;;;;;;;23.80;33.07;100075.59;7397375;19;20011;-57
2024/04/24 08:39:35;;;;;;;1.45;0.52;;;;;;;24.11;33.07;100073.66;7394658;19;20020;-58
2024/04/24 08:42:03;;;;;;;0.40;0.40;;;;;;;24.29;32.58;100069.72;7395327;19;20019;-58
2024/04/24 08:44:30;;;;;;;0.40;0.40;;;;;;;24.33;32.40;100063.63;7393666;19;20011;-57
2024/04/24 08:46:56;;;;;;;1.17;1.13;;;;;;;24.13;32.77;100067.41;7390392;19;20015;-58
2024/04/24 08:49:25;;;;;;;3.50;0.68;;;;;;;23.94;31.70;100062.75;7395484;19;20006;-58
2024/04/24 08:51:55;;;;;;;0.63;0.40;;;;;;;24.53;30.98;100054.19;7392179;19;20017;-58
2024/04/24 08:54:22;;;;;;;1.40;0.65;;;;;;;23.93;31.66;100066.19;7392987;19;20110;-58
2024/04/24 08:56:59;;;;;;;0.40;0.40;;;;;;;24.04;31.84;100052.38;7394155;19;20031;-58
2024/04/24 08:59:45;;;;;;;0.52;0.20;;;;;;;23.59;32.85;100052.19;7393389;19;20684;-58
2024/04/24 09:02:13;;;;;;;1.00;0.47;;;;;;;24.80;31.45;100052.50;7395868;19;20015;-58
2024/04/24 09:04:41;;;;;;;0.30;0.30;;;;;;;25.16;30.89;100050.22;7394188;19;20320;-58
2024/04/24 09:07:08;;;;;;;1.05;0.60;;;;;;;25.51;31.46;100042.75;7395754;19;20015;-59
2024/04/24 09:09:35;;;;;;;0.40;0.40;;;;;;;25.53;31.84;100046.50;7391780;19;20486;-58
2024/04/24 09:12:06;;;;;;;1.58;0.80;;;;;;;25.56;30.89;100045.38;7395387;19;20391;-58
2024/04/24 09:14:33;;;;;;;0.30;0.30;;;;;;;25.27;30.68;100046.97;7391491;19;20015;-58
2024/04/24 09:17:00;;;;;;;0.85;0.73;;;;;;;25.30;30.92;100057.22;7392332;19;20017;-58
2024/04/24 09:19:27;;;;;;;0.50;0.50;;;;;;;24.99;30.70;100050.06;7393237;19;20011;-58
2024/04/24 09:21:53;;;;;;;0.55;0.55;;;;;;;25.71;30.59;100055.22;7396478;19;20013;-58
2024/04/24 09:24:19;;;;;;;3.13;0.57;;;;;;;25.65;30.24;100040.41;7396886;19;20010;-58
2024/04/24 09:26:49;;;;;;;0.95;0.88;;;;;;;25.48;29.73;100041.78;7395717;19;20352;-58
2024/04/24 09:29:16;;;;;;;12.15;0.65;;;;;;;24.99;29.77;100063.53;7396451;19;20014;-58
2024/04/24 09:31:42;;;;;;;1.65;0.43;;;;;;;24.98;30.58;100051.38;7396407;19;20090;-58
2024/04/24 09:34:10;;;;;;;0.43;0.43;;;;;;;25.07;30.40;100050.03;7393157;19;20363;-58
2024/04/24 09:36:41;;;;;;;0.80;0.43;;;;;;;25.00;30.42;100051.56;7396683;19;20002;-58
2024/04/24 09:39:08;;;;;;;0.13;0.13;;;;;;;25.51;29.96;100049.19;7396916;19;20039;-58
2024/04/24 09:41:36;;;;;;;7.32;0.40;;;;;;;25.96;30.23;100042.56;7393942;19;20022;-58
2024/04/24 09:44:02;;;;;;;3.80;0.75;;;;;;;26.03;29.96;100043.84;7394279;19;20360;-58
2024/04/24 09:46:29;;;;;;;0.28;0.25;;;;;;;25.85;29.79;100036.50;7391729;19;20459;-58
2024/04/24 09:48:56;;;;;;;3.38;0.30;;;;;;;25.66;29.53;100036.22;7390801;19;20070;-58
2024/04/24 09:51:22;;;;;;;0.60;0.60;;;;;;;26.00;29.06;100040.06;7392499;19;20301;-58
2024/04/24 09:53:48;;;;;;;0.75;0.65;;;;;;;26.01;28.78;100037.97;7390259;19;20378;-58
2024/04/24 09:56:22;;;;;;;0.52;0.40;;;;;;;26.02;28.95;100034.53;7397042;19;20088;-58
2024/04/24 09:58:55;;;;;;;0.20;0.20;;;;;;;26.05;28.74;100021.19;7390315;19;20015;-58
2024/04/24 10:01:22;;;;;;;0.60;0.40;;;;;;;25.94;29.24;100033.06;7390066;19;20010;-58
2024/04/24 10:03:51;;;;;;;0.50;0.30;;;;;;;25.40;29.32;100026.75;7388746;19;20007;-58
2024/04/24 10:06:20;;;;;;;1.35;0.95;;;;;;;25.29;28.92;100032.91;7391716;19;20014;-58
2024/04/24 10:08:48;;;;;;;0.32;0.32;;;;;;;25.19;29.39;100023.41;7394843;19;20038;-58
2024/04/24 10:11:20;;;;;;;6.85;0.85;;;;;;;25.46;29.06;100018.81;7390195;19;20149;-59
2024/04/24 10:13:50;;;;;;;0.30;0.25;;;;;;;26.09;28.59;100008.06;7389563;19;20014;-58
2024/04/24 10:16:17;;;;;;;1.55;0.40;;;;;;;26.66;28.50;100010.88;7390578;19;20020;-58
2024/04/24 10:18:45;;;;;;;8.57;0.40;;;;;;;26.93;27.29;100003.22;7391506;19;20328;-58
2024/04/24 10:21:12;;;;;;;0.85;0.45;;;;;;;27.08;27.11;100004.41;7392924;19;20503;-59
2024/04/24 10:23:39;;;;;;;0.10;0.10;;;;;;;27.22;27.12;100002.75;7388673;19;20015;-58
2024/04/24 10:26:06;;;;;;;5.68;0.30;;;;;;;27.44;26.62;100002.50;7391160;19;20015;-58
2024/04/24 10:28:34;;;;;;;0.50;0.50;;;;;;;27.47;26.42;100001.34;7391841;19;20010;-59
2024/04/24 10:31:03;;;;;;;0.20;0.20;;;;;;;27.46;26.99;100007.66;7392637;19;20352;-58
2024/04/24 10:33:31;;;;;;;0.32;0.20;;;;;;;27.38;26.80;100004.09;7389656;19;20503;-58
2024/04/24 10:35:57;;;;;;;0.38;0.38;;;;;;;27.48;26.88;100007.81;7391279;19;20507;-58
2024/04/24 10:38:26;;;;;;;0.52;0.13;;;;;;;27.08;27.02;99995.81;7388884;19;20014;-58
2024/04/24 10:40:52;;;;;;;0.73;0.22;;;;;;;27.17;26.89;100000.88;7387991;19;20094;-58
2024/04/24 10:43:21;;;;;;;0.28;0.20;;;;;;;27.27;27.24;99990.28;7389220;19;20039;-58
2024/04/24 10:45:47;;;;;;;2.22;0.68;;;;;;;27.31;27.03;99993.50;7389499;19;20070;-58
2024/04/24 10:48:13;;;;;;;0.57;0.40;;;;;;;27.30;27.14;99989.09;7389689;19;20010;-58
2024/04/24 10:50:40;;;;;;;0.40;0.40;;;;;;;27.39;26.42;99988.47;7390376;19;20411;-59
2024/04/24 10:53:07;;;;;;;0.10;0.10;;;;;;;27.02;26.19;99985.41;7390210;19;20013;-58
2024/04/24 10:55:33;;;;;;;0.20;0.20;;;;;;;26.85;26.23;99988.25;7391187;19;20029;-58
2024/04/24 10:58:00;;;;;;;0.28;0.28;;;;;;;26.48;25.87;99989.31;7388922;19;20454;-59
2024/04/24 11:00:33;;;;;;;2.05;0.20;;;;;;;26.79;26.21;99982.00;7389245;19;20082;-58
2024/04/24 11:03:00;;;;;;;0.60;0.43;;;;;;;26.70;26.54;99988.38;7393004;19;20026;-58
2024/04/24 11:05:31;;;;;;;0.45;0.25;;;;;;;26.72;26.36;99982.81;7388288;19;20011;-58
2024/04/24 11:08:03;;;;;;;0.77;0.30;;;;;;;27.00;26.68;99981.63;7394123;19;20460;-58
2024/04/24 11:10:30;;;;;;;0.15;0.15;;;;;;;27.22;26.43;99974.16;7392262;19;20052;-58
2024/04/24 11:12:56;;;;;;;11.75;0.98;;;;;;;26.74;26.39;99974.47;7400921;19;20019;-58
2024/04/24 11:15:28;;;;;;;2.47;0.57;;;;;;;27.13;26.70;99969.09;7394968;19;20027;-58
2024/04/24 11:17:54;;;;;;;2.33;0.63;;;;;;;27.73;26.13;99974.88;7394476;19;20098;-58
2024/04/24 11:20:22;;;;;;;0.40;0.30;;;;;;;27.41;25.80;99962.88;7395516;19;20019;-58
2024/04/24 11:22:48;;;;;;;0.25;0.25;;;;;;;27.18;26.33;99968.09;7399052;19;20018;-58
2024/04/24 11:25:17;;;;;;;0.38;0.38;;;;;;;27.56;26.00;99957.72;7397522;19;20011;-58
2024/04/24 11:27:44;;;;;;;4.47;0.20;;;;;;;27.70;25.86;99955.25;7397025;19;20014;-58
2024/04/24 11:30:18;;;;;;;0.10;0.10;;;;;;;27.78;25.30;99950.19;7395782;19;20018;-57